sensor_id;sensor_type;location;lat;lon;timestamp;P1;durP1;ratioP1;P2;durP2;ratioP2
4806;SDS011;2417;52.482;13.432;2023-04-24T00:00:50;10.53;;;7.67;;
4806;SDS011;2417;52.482;13.432;2023-04-24T00:03:19;12.03;;;7.90;;
4806;SDS011;2417;52.482;13.432;2023-04-24T00:05:48;11.40;;;7.83;;
4806;SDS011;2417;52.482;13.432;2023-04-24T00:08:17;10.30;;;8.10;;
4806;SDS011;2417;52.482;13.432;2023-04-24T00:10:45;12.63;;;8.23;;
4806;SDS011;2417;52.482;13.432;2023-04-24T00:13:13;10.03;;;7.10;;
4806;SDS011;2417;52.482;13.432;2023-04-24T00:15:42;10.80;;;7.40;;
4806;SDS011;2417;52.482;13.432;2023-04-24T00:18:10;9.50;;;7.20;;
4806;SDS011;2417;52.482;13.432;2023-04-24T00:20:38;9.07;;;7.37;;
4806;SDS011;2417;52.482;13.432;2023-04-24T00:23:06;11.97;;;7.67;;
4806;SDS011;2417;52.482;13.432;2023-04-24T00:25:34;10.33;;;6.83;;
4806;SDS011;2417;52.482;13.432;2023-04-24T00:28:01;9.97;;;7.57;;
4806;SDS011;2417;52.482;13.432;2023-04-24T00:30:29;11.50;;;7.90;;
4806;SDS011;2417;52.482;13.432;2023-04-24T00:32:58;13.93;;;7.50;;
4806;SDS011;2417;52.482;13.432;2023-04-24T00:35:26;13.23;;;8.20;;
4806;SDS011;2417;52.482;13.432;2023-04-24T00:37:54;11.57;;;7.40;;
4806;SDS011;2417;52.482;13.432;2023-04-24T00:40:22;15.97;;;7.80;;
4806;SDS011;2417;52.482;13.432;2023-04-24T00:42:50;12.60;;;7.37;;
4806;SDS011;2417;52.482;13.432;2023-04-24T00:45:18;11.90;;;7.60;;
4806;SDS011;2417;52.482;13.432;2023-04-24T00:47:47;21.47;;;7.90;;
4806;SDS011;2417;52.482;13.432;2023-04-24T00:50:17;11.60;;;8.10;;
4806;SDS011;2417;52.482;13.432;2023-04-24T00:52:45;11.23;;;7.90;;
4806;SDS011;2417;52.482;13.432;2023-04-24T00:55:13;12.30;;;8.17;;
4806;SDS011;2417;52.482;13.432;2023-04-24T00:57:42;10.70;;;7.63;;
4806;SDS011;2417;52.482;13.432;2023-04-24T01:00:10;11.90;;;8.17;;
4806;SDS011;2417;52.482;13.432;2023-04-24T01:02:39;11.60;;;7.70;;
4806;SDS011;2417;52.482;13.432;2023-04-24T01:05:11;13.60;;;8.37;;
4806;SDS011;2417;52.482;13.432;2023-04-24T01:07:41;10.10;;;7.60;;
4806;SDS011;2417;52.482;13.432;2023-04-24T01:10:12;12.17;;;8.60;;
4806;SDS011;2417;52.482;13.432;2023-04-24T01:12:40;11.30;;;7.57;;
4806;SDS011;2417;52.482;13.432;2023-04-24T01:15:11;12.60;;;8.10;;
4806;SDS011;2417;52.482;13.432;2023-04-24T01:17:41;11.40;;;7.93;;
4806;SDS011;2417;52.482;13.432;2023-04-24T01:20:09;12.40;;;8.10;;
4806;SDS011;2417;52.482;13.432;2023-04-24T01:22:41;11.10;;;7.60;;
4806;SDS011;2417;52.482;13.432;2023-04-24T01:25:09;13.13;;;8.37;;
4806;SDS011;2417;52.482;13.432;2023-04-24T01:27:37;11.73;;;8.40;;
4806;SDS011;2417;52.482;13.432;2023-04-24T01:30:07;10.97;;;7.60;;
4806;SDS011;2417;52.482;13.432;2023-04-24T01:32:35;10.33;;;7.87;;
4806;SDS011;2417;52.482;13.432;2023-04-24T01:35:04;13.10;;;8.47;;
4806;SDS011;2417;52.482;13.432;2023-04-24T01:37:32;12.67;;;8.57;;
4806;SDS011;2417;52.482;13.432;2023-04-24T01:40:01;11.80;;;8.40;;
4806;SDS011;2417;52.482;13.432;2023-04-24T01:42:30;11.03;;;7.77;;
4806;SDS011;2417;52.482;13.432;2023-04-24T01:44:58;12.90;;;8.60;;
4806;SDS011;2417;52.482;13.432;2023-04-24T01:47:26;11.80;;;8.50;;
4806;SDS011;2417;52.482;13.432;2023-04-24T01:49:57;11.93;;;7.93;;
4806;SDS011;2417;52.482;13.432;2023-04-24T01:52:26;12.50;;;8.67;;
4806;SDS011;2417;52.482;13.432;2023-04-24T01:54:55;11.47;;;8.13;;
4806;SDS011;2417;52.482;13.432;2023-04-24T01:57:24;11.13;;;8.40;;
4806;SDS011;2417;52.482;13.432;2023-04-24T01:59:55;12.57;;;8.57;;
4806;SDS011;2417;52.482;13.432;2023-04-24T02:02:23;12.10;;;8.40;;
4806;SDS011;2417;52.482;13.432;2023-04-24T02:04:56;11.03;;;8.10;;
4806;SDS011;2417;52.482;13.432;2023-04-24T02:07:24;11.73;;;8.77;;
4806;SDS011;2417;52.482;13.432;2023-04-24T02:09:52;12.80;;;8.60;;
4806;SDS011;2417;52.482;13.432;2023-04-24T02:12:20;12.10;;;8.93;;
4806;SDS011;2417;52.482;13.432;2023-04-24T02:14:52;12.07;;;8.90;;
4806;SDS011;2417;52.482;13.432;2023-04-24T02:17:19;12.87;;;8.80;;
4806;SDS011;2417;52.482;13.432;2023-04-24T02:19:47;13.67;;;9.43;;
4806;SDS011;2417;52.482;13.432;2023-04-24T02:22:16;15.23;;;9.43;;
4806;SDS011;2417;52.482;13.432;2023-04-24T02:24:44;14.90;;;8.70;;
4806;SDS011;2417;52.482;13.432;2023-04-24T02:27:14;13.27;;;8.63;;
4806;SDS011;2417;52.482;13.432;2023-04-24T02:29:44;14.80;;;9.20;;
4806;SDS011;2417;52.482;13.432;2023-04-24T02:32:13;12.03;;;8.80;;
4806;SDS011;2417;52.482;13.432;2023-04-24T02:34:42;13.50;;;9.37;;
4806;SDS011;2417;52.482;13.432;2023-04-24T02:37:11;12.73;;;8.80;;
4806;SDS011;2417;52.482;13.432;2023-04-24T02:39:39;16.53;;;8.90;;
4806;SDS011;2417;52.482;13.432;2023-04-24T02:42:07;14.83;;;9.43;;
4806;SDS011;2417;52.482;13.432;2023-04-24T02:44:35;13.87;;;8.83;;
4806;SDS011;2417;52.482;13.432;2023-04-24T02:47:03;13.13;;;9.40;;
4806;SDS011;2417;52.482;13.432;2023-04-24T02:49:32;11.73;;;9.07;;
4806;SDS011;2417;52.482;13.432;2023-04-24T02:52:00;15.47;;;9.20;;
4806;SDS011;2417;52.482;13.432;2023-04-24T02:54:28;17.47;;;8.37;;
4806;SDS011;2417;52.482;13.432;2023-04-24T02:56:56;13.47;;;9.20;;
4806;SDS011;2417;52.482;13.432;2023-04-24T02:59:24;11.57;;;8.10;;
4806;SDS011;2417;52.482;13.432;2023-04-24T03:01:53;13.60;;;8.70;;
4806;SDS011;2417;52.482;13.432;2023-04-24T03:04:21;14.80;;;8.30;;
4806;SDS011;2417;52.482;13.432;2023-04-24T03:06:51;11.90;;;8.40;;
4806;SDS011;2417;52.482;13.432;2023-04-24T03:09:19;12.70;;;9.00;;
4806;SDS011;2417;52.482;13.432;2023-04-24T03:11:47;13.30;;;8.30;;
4806;SDS011;2417;52.482;13.432;2023-04-24T03:14:15;12.07;;;8.43;;
4806;SDS011;2417;52.482;13.432;2023-04-24T03:16:44;13.70;;;9.27;;
4806;SDS011;2417;52.482;13.432;2023-04-24T03:19:12;12.73;;;8.10;;
4806;SDS011;2417;52.482;13.432;2023-04-24T03:21:53;12.00;;;8.27;;
4806;SDS011;2417;52.482;13.432;2023-04-24T03:24:21;12.87;;;8.70;;
4806;SDS011;2417;52.482;13.432;2023-04-24T03:26:49;12.40;;;8.53;;
4806;SDS011;2417;52.482;13.432;2023-04-24T03:29:35;13.57;;;8.23;;
4806;SDS011;2417;52.482;13.432;2023-04-24T03:32:03;13.07;;;8.77;;
4806;SDS011;2417;52.482;13.432;2023-04-24T03:34:32;13.80;;;7.93;;
4806;SDS011;2417;52.482;13.432;2023-04-24T03:37:01;14.00;;;8.03;;
4806;SDS011;2417;52.482;13.432;2023-04-24T03:39:32;10.90;;;7.53;;
4806;SDS011;2417;52.482;13.432;2023-04-24T03:42:02;12.77;;;7.83;;
4806;SDS011;2417;52.482;13.432;2023-04-24T03:44:42;14.40;;;8.13;;
4806;SDS011;2417;52.482;13.432;2023-04-24T03:47:10;12.23;;;8.03;;
4806;SDS011;2417;52.482;13.432;2023-04-24T03:49:38;12.00;;;8.47;;
4806;SDS011;2417;52.482;13.432;2023-04-24T03:52:09;19.20;;;8.77;;
4806;SDS011;2417;52.482;13.432;2023-04-24T03:54:38;13.97;;;9.43;;
4806;SDS011;2417;52.482;13.432;2023-04-24T03:57:06;15.60;;;8.50;;
4806;SDS011;2417;52.482;13.432;2023-04-24T03:59:36;11.17;;;7.93;;
4806;SDS011;2417;52.482;13.432;2023-04-24T04:02:15;13.90;;;7.73;;
4806;SDS011;2417;52.482;13.432;2023-04-24T04:04:44;11.10;;;7.67;;
4806;SDS011;2417;52.482;13.432;2023-04-24T04:07:13;12.00;;;8.33;;
4806;SDS011;2417;52.482;13.432;2023-04-24T04:09:41;13.17;;;8.13;;
4806;SDS011;2417;52.482;13.432;2023-04-24T04:12:09;12.30;;;8.40;;
4806;SDS011;2417;52.482;13.432;2023-04-24T04:14:38;12.93;;;7.97;;
4806;SDS011;2417;52.482;13.432;2023-04-24T04:17:06;12.40;;;7.80;;
4806;SDS011;2417;52.482;13.432;2023-04-24T04:19:34;14.73;;;8.70;;
4806;SDS011;2417;52.482;13.432;2023-04-24T04:22:02;12.17;;;8.20;;
4806;SDS011;2417;52.482;13.432;2023-04-24T04:24:39;11.07;;;7.20;;
4806;SDS011;2417;52.482;13.432;2023-04-24T04:27:09;13.90;;;8.30;;
4806;SDS011;2417;52.482;13.432;2023-04-24T04:29:46;11.90;;;8.27;;
4806;SDS011;2417;52.482;13.432;2023-04-24T04:32:15;16.30;;;8.50;;
4806;SDS011;2417;52.482;13.432;2023-04-24T04:34:43;11.17;;;7.27;;
4806;SDS011;2417;52.482;13.432;2023-04-24T04:37:12;10.87;;;8.07;;
4806;SDS011;2417;52.482;13.432;2023-04-24T04:40:07;12.10;;;8.00;;
4806;SDS011;2417;52.482;13.432;2023-04-24T04:42:47;12.90;;;8.13;;
4806;SDS011;2417;52.482;13.432;2023-04-24T04:45:17;12.83;;;7.77;;
4806;SDS011;2417;52.482;13.432;2023-04-24T04:48:05;11.37;;;8.20;;
4806;SDS011;2417;52.482;13.432;2023-04-24T04:50:36;11.50;;;7.90;;
4806;SDS011;2417;52.482;13.432;2023-04-24T04:53:06;13.30;;;7.53;;
4806;SDS011;2417;52.482;13.432;2023-04-24T04:55:38;13.27;;;8.33;;
4806;SDS011;2417;52.482;13.432;2023-04-24T04:58:10;11.90;;;8.07;;
4806;SDS011;2417;52.482;13.432;2023-04-24T05:00:37;11.30;;;7.13;;
4806;SDS011;2417;52.482;13.432;2023-04-24T05:03:14;13.40;;;7.30;;
4806;SDS011;2417;52.482;13.432;2023-04-24T05:05:53;11.17;;;7.20;;
4806;SDS011;2417;52.482;13.432;2023-04-24T05:08:24;11.10;;;7.20;;
4806;SDS011;2417;52.482;13.432;2023-04-24T05:11:17;14.00;;;7.10;;
4806;SDS011;2417;52.482;13.432;2023-04-24T05:13:46;9.47;;;6.63;;
4806;SDS011;2417;52.482;13.432;2023-04-24T05:16:18;9.63;;;6.13;;
4806;SDS011;2417;52.482;13.432;2023-04-24T05:18:48;10.67;;;6.60;;
4806;SDS011;2417;52.482;13.432;2023-04-24T05:21:19;11.70;;;6.60;;
4806;SDS011;2417;52.482;13.432;2023-04-24T05:23:50;9.90;;;5.97;;
4806;SDS011;2417;52.482;13.432;2023-04-24T05:26:33;10.00;;;6.13;;
4806;SDS011;2417;52.482;13.432;2023-04-24T05:29:03;10.83;;;6.43;;
4806;SDS011;2417;52.482;13.432;2023-04-24T05:31:31;11.53;;;6.03;;
4806;SDS011;2417;52.482;13.432;2023-04-24T05:33:59;12.30;;;5.77;;
4806;SDS011;2417;52.482;13.432;2023-04-24T05:36:27;10.53;;;5.17;;
4806;SDS011;2417;52.482;13.432;2023-04-24T05:38:55;12.03;;;5.03;;
4806;SDS011;2417;52.482;13.432;2023-04-24T05:41:24;8.47;;;5.20;;
4806;SDS011;2417;52.482;13.432;2023-04-24T05:43:53;11.50;;;4.70;;
4806;SDS011;2417;52.482;13.432;2023-04-24T05:46:22;9.77;;;5.10;;
4806;SDS011;2417;52.482;13.432;2023-04-24T05:48:50;7.17;;;4.30;;
4806;SDS011;2417;52.482;13.432;2023-04-24T05:51:18;7.90;;;4.30;;
4806;SDS011;2417;52.482;13.432;2023-04-24T05:53:46;8.03;;;4.50;;
4806;SDS011;2417;52.482;13.432;2023-04-24T05:56:13;5.73;;;3.60;;
4806;SDS011;2417;52.482;13.432;2023-04-24T05:58:42;5.80;;;3.30;;
4806;SDS011;2417;52.482;13.432;2023-04-24T06:01:11;8.33;;;3.30;;
4806;SDS011;2417;52.482;13.432;2023-04-24T06:03:43;5.63;;;3.33;;
4806;SDS011;2417;52.482;13.432;2023-04-24T06:06:12;6.40;;;3.17;;
4806;SDS011;2417;52.482;13.432;2023-04-24T06:08:40;5.87;;;2.90;;
4806;SDS011;2417;52.482;13.432;2023-04-24T06:11:09;5.00;;;2.70;;
4806;SDS011;2417;52.482;13.432;2023-04-24T06:13:38;5.00;;;2.77;;
4806;SDS011;2417;52.482;13.432;2023-04-24T06:16:33;6.57;;;2.90;;
4806;SDS011;2417;52.482;13.432;2023-04-24T06:19:09;4.33;;;2.17;;
4806;SDS011;2417;52.482;13.432;2023-04-24T06:21:37;7.27;;;2.97;;
4806;SDS011;2417;52.482;13.432;2023-04-24T06:24:05;4.00;;;2.40;;
4806;SDS011;2417;52.482;13.432;2023-04-24T06:26:33;4.20;;;2.27;;
4806;SDS011;2417;52.482;13.432;2023-04-24T06:29:00;4.20;;;2.40;;
4806;SDS011;2417;52.482;13.432;2023-04-24T06:31:29;8.00;;;2.43;;
4806;SDS011;2417;52.482;13.432;2023-04-24T06:33:58;5.47;;;2.67;;
4806;SDS011;2417;52.482;13.432;2023-04-24T06:36:29;8.23;;;2.30;;
4806;SDS011;2417;52.482;13.432;2023-04-24T06:38:58;3.53;;;2.00;;
4806;SDS011;2417;52.482;13.432;2023-04-24T06:41:25;8.90;;;2.80;;
4806;SDS011;2417;52.482;13.432;2023-04-24T06:43:53;6.00;;;2.10;;
4806;SDS011;2417;52.482;13.432;2023-04-24T06:46:21;3.33;;;1.90;;
4806;SDS011;2417;52.482;13.432;2023-04-24T06:48:50;4.70;;;1.87;;
4806;SDS011;2417;52.482;13.432;2023-04-24T06:51:19;3.97;;;2.00;;
4806;SDS011;2417;52.482;13.432;2023-04-24T06:53:47;3.50;;;2.13;;
4806;SDS011;2417;52.482;13.432;2023-04-24T06:56:16;6.40;;;1.80;;
4806;SDS011;2417;52.482;13.432;2023-04-24T06:58:44;5.20;;;1.93;;
4806;SDS011;2417;52.482;13.432;2023-04-24T07:01:11;3.37;;;1.73;;
4806;SDS011;2417;52.482;13.432;2023-04-24T07:03:40;3.17;;;1.53;;
4806;SDS011;2417;52.482;13.432;2023-04-24T07:06:08;3.10;;;1.70;;
4806;SDS011;2417;52.482;13.432;2023-04-24T07:08:39;3.87;;;1.87;;
4806;SDS011;2417;52.482;13.432;2023-04-24T07:11:08;3.60;;;1.60;;
4806;SDS011;2417;52.482;13.432;2023-04-24T07:13:36;2.70;;;1.43;;
4806;SDS011;2417;52.482;13.432;2023-04-24T07:16:08;5.53;;;1.73;;
4806;SDS011;2417;52.482;13.432;2023-04-24T07:18:36;3.83;;;1.70;;
4806;SDS011;2417;52.482;13.432;2023-04-24T07:21:04;6.40;;;1.60;;
4806;SDS011;2417;52.482;13.432;2023-04-24T07:23:32;5.73;;;1.80;;
4806;SDS011;2417;52.482;13.432;2023-04-24T07:26:02;5.00;;;2.00;;
4806;SDS011;2417;52.482;13.432;2023-04-24T07:28:30;2.73;;;1.40;;
4806;SDS011;2417;52.482;13.432;2023-04-24T07:30:58;4.57;;;1.30;;
4806;SDS011;2417;52.482;13.432;2023-04-24T07:33:26;2.50;;;1.30;;
4806;SDS011;2417;52.482;13.432;2023-04-24T07:35:54;4.40;;;1.30;;
4806;SDS011;2417;52.482;13.432;2023-04-24T07:38:22;2.33;;;1.27;;
4806;SDS011;2417;52.482;13.432;2023-04-24T07:40:52;5.90;;;1.40;;
4806;SDS011;2417;52.482;13.432;2023-04-24T07:43:22;3.43;;;1.33;;
4806;SDS011;2417;52.482;13.432;2023-04-24T07:45:51;2.73;;;1.23;;
4806;SDS011;2417;52.482;13.432;2023-04-24T07:48:19;2.53;;;1.20;;
4806;SDS011;2417;52.482;13.432;2023-04-24T07:50:48;2.70;;;1.20;;
4806;SDS011;2417;52.482;13.432;2023-04-24T07:53:16;7.20;;;3.20;;
4806;SDS011;2417;52.482;13.432;2023-04-24T07:55:44;2.90;;;1.30;;
4806;SDS011;2417;52.482;13.432;2023-04-24T07:58:12;2.37;;;1.10;;
4806;SDS011;2417;52.482;13.432;2023-04-24T08:00:41;3.20;;;1.30;;
4806;SDS011;2417;52.482;13.432;2023-04-24T08:03:09;2.73;;;1.00;;
4806;SDS011;2417;52.482;13.432;2023-04-24T08:05:37;4.10;;;1.57;;
4806;SDS011;2417;52.482;13.432;2023-04-24T08:08:07;4.60;;;1.60;;
4806;SDS011;2417;52.482;13.432;2023-04-24T08:10:34;4.77;;;1.37;;
4806;SDS011;2417;52.482;13.432;2023-04-24T08:13:02;9.90;;;1.50;;
4806;SDS011;2417;52.482;13.432;2023-04-24T08:15:30;3.83;;;1.50;;
4806;SDS011;2417;52.482;13.432;2023-04-24T08:17:59;3.17;;;1.30;;
4806;SDS011;2417;52.482;13.432;2023-04-24T08:20:27;3.67;;;1.23;;
4806;SDS011;2417;52.482;13.432;2023-04-24T08:22:55;3.40;;;1.20;;
4806;SDS011;2417;52.482;13.432;2023-04-24T08:25:23;3.33;;;1.70;;
4806;SDS011;2417;52.482;13.432;2023-04-24T08:27:51;3.53;;;1.60;;
4806;SDS011;2417;52.482;13.432;2023-04-24T08:30:20;2.27;;;1.20;;
4806;SDS011;2417;52.482;13.432;2023-04-24T08:32:47;5.47;;;1.70;;
4806;SDS011;2417;52.482;13.432;2023-04-24T08:35:16;4.70;;;1.93;;
4806;SDS011;2417;52.482;13.432;2023-04-24T08:37:45;5.70;;;1.33;;
4806;SDS011;2417;52.482;13.432;2023-04-24T08:40:13;6.83;;;1.20;;
4806;SDS011;2417;52.482;13.432;2023-04-24T08:42:42;2.57;;;1.07;;
4806;SDS011;2417;52.482;13.432;2023-04-24T08:45:11;4.20;;;1.50;;
4806;SDS011;2417;52.482;13.432;2023-04-24T08:47:40;3.33;;;1.07;;
4806;SDS011;2417;52.482;13.432;2023-04-24T08:50:08;2.10;;;1.00;;
4806;SDS011;2417;52.482;13.432;2023-04-24T08:52:39;1.77;;;0.90;;
4806;SDS011;2417;52.482;13.432;2023-04-24T08:55:07;4.93;;;1.60;;
4806;SDS011;2417;52.482;13.432;2023-04-24T08:57:35;1.97;;;0.90;;
4806;SDS011;2417;52.482;13.432;2023-04-24T09:00:07;4.20;;;1.30;;
4806;SDS011;2417;52.482;13.432;2023-04-24T09:02:39;3.40;;;1.00;;
4806;SDS011;2417;52.482;13.432;2023-04-24T09:05:07;3.20;;;1.10;;
4806;SDS011;2417;52.482;13.432;2023-04-24T09:07:36;2.80;;;1.20;;
4806;SDS011;2417;52.482;13.432;2023-04-24T09:10:08;3.30;;;1.17;;
4806;SDS011;2417;52.482;13.432;2023-04-24T09:12:36;3.37;;;1.17;;
4806;SDS011;2417;52.482;13.432;2023-04-24T09:15:05;5.77;;;1.47;;
4806;SDS011;2417;52.482;13.432;2023-04-24T09:17:34;6.17;;;1.10;;
4806;SDS011;2417;52.482;13.432;2023-04-24T09:20:03;4.90;;;2.30;;
4806;SDS011;2417;52.482;13.432;2023-04-24T09:22:31;2.83;;;1.00;;
4806;SDS011;2417;52.482;13.432;2023-04-24T09:25:02;4.50;;;1.10;;
4806;SDS011;2417;52.482;13.432;2023-04-24T09:27:31;6.07;;;1.23;;
4806;SDS011;2417;52.482;13.432;2023-04-24T09:30:00;4.93;;;2.07;;
4806;SDS011;2417;52.482;13.432;2023-04-24T09:32:28;8.70;;;1.90;;
4806;SDS011;2417;52.482;13.432;2023-04-24T09:35:05;2.70;;;1.20;;
4806;SDS011;2417;52.482;13.432;2023-04-24T09:37:35;5.17;;;1.63;;
4806;SDS011;2417;52.482;13.432;2023-04-24T09:40:07;3.20;;;1.40;;
4806;SDS011;2417;52.482;13.432;2023-04-24T09:42:36;3.37;;;1.67;;
4806;SDS011;2417;52.482;13.432;2023-04-24T09:45:08;4.40;;;1.60;;
4806;SDS011;2417;52.482;13.432;2023-04-24T09:47:41;5.10;;;1.70;;
4806;SDS011;2417;52.482;13.432;2023-04-24T09:50:09;8.40;;;2.20;;
4806;SDS011;2417;52.482;13.432;2023-04-24T09:52:39;6.00;;;1.90;;
4806;SDS011;2417;52.482;13.432;2023-04-24T09:55:10;7.10;;;2.43;;
4806;SDS011;2417;52.482;13.432;2023-04-24T09:57:47;3.10;;;1.13;;
4806;SDS011;2417;52.482;13.432;2023-04-24T10:00:22;6.10;;;3.07;;
4806;SDS011;2417;52.482;13.432;2023-04-24T10:02:55;6.73;;;1.30;;
4806;SDS011;2417;52.482;13.432;2023-04-24T10:05:23;3.53;;;1.00;;
4806;SDS011;2417;52.482;13.432;2023-04-24T10:07:52;3.80;;;1.10;;
4806;SDS011;2417;52.482;13.432;2023-04-24T10:10:23;3.50;;;1.30;;
4806;SDS011;2417;52.482;13.432;2023-04-24T10:12:52;5.40;;;1.00;;
4806;SDS011;2417;52.482;13.432;2023-04-24T10:15:21;4.73;;;1.30;;
4806;SDS011;2417;52.482;13.432;2023-04-24T10:17:49;6.90;;;1.23;;
4806;SDS011;2417;52.482;13.432;2023-04-24T10:20:20;5.77;;;1.73;;
4806;SDS011;2417;52.482;13.432;2023-04-24T10:22:48;4.10;;;0.97;;
4806;SDS011;2417;52.482;13.432;2023-04-24T10:25:18;2.97;;;1.00;;
4806;SDS011;2417;52.482;13.432;2023-04-24T10:27:47;4.20;;;1.37;;
4806;SDS011;2417;52.482;13.432;2023-04-24T10:30:17;3.60;;;1.10;;
4806;SDS011;2417;52.482;13.432;2023-04-24T10:32:45;3.90;;;1.47;;
4806;SDS011;2417;52.482;13.432;2023-04-24T10:35:14;4.53;;;1.10;;
4806;SDS011;2417;52.482;13.432;2023-04-24T10:37:44;4.00;;;1.33;;
4806;SDS011;2417;52.482;13.432;2023-04-24T10:40:16;5.07;;;1.70;;
4806;SDS011;2417;52.482;13.432;2023-04-24T10:42:46;3.60;;;1.20;;
4806;SDS011;2417;52.482;13.432;2023-04-24T10:45:20;3.50;;;1.47;;
4806;SDS011;2417;52.482;13.432;2023-04-24T10:47:58;4.43;;;1.20;;
4806;SDS011;2417;52.482;13.432;2023-04-24T10:50:41;2.20;;;1.10;;
4806;SDS011;2417;52.482;13.432;2023-04-24T10:53:12;3.10;;;1.27;;
4806;SDS011;2417;52.482;13.432;2023-04-24T10:55:43;4.40;;;1.50;;
4806;SDS011;2417;52.482;13.432;2023-04-24T10:58:11;6.10;;;1.80;;
4806;SDS011;2417;52.482;13.432;2023-04-24T11:00:41;5.07;;;1.30;;
4806;SDS011;2417;52.482;13.432;2023-04-24T11:03:22;3.83;;;1.60;;
4806;SDS011;2417;52.482;13.432;2023-04-24T11:05:51;3.20;;;1.40;;
4806;SDS011;2417;52.482;13.432;2023-04-24T11:08:29;3.33;;;1.00;;
4806;SDS011;2417;52.482;13.432;2023-04-24T11:10:58;8.23;;;2.63;;
4806;SDS011;2417;52.482;13.432;2023-04-24T11:13:27;5.93;;;1.77;;
4806;SDS011;2417;52.482;13.432;2023-04-24T11:16:13;5.50;;;1.33;;
4806;SDS011;2417;52.482;13.432;2023-04-24T11:18:41;2.87;;;1.60;;
4806;SDS011;2417;52.482;13.432;2023-04-24T11:21:12;3.60;;;1.50;;
4806;SDS011;2417;52.482;13.432;2023-04-24T11:23:40;5.50;;;3.13;;
4806;SDS011;2417;52.482;13.432;2023-04-24T11:26:11;4.07;;;1.70;;
4806;SDS011;2417;52.482;13.432;2023-04-24T11:28:47;6.80;;;1.80;;
4806;SDS011;2417;52.482;13.432;2023-04-24T11:31:35;7.10;;;1.33;;
4806;SDS011;2417;52.482;13.432;2023-04-24T11:34:07;3.40;;;1.60;;
4806;SDS011;2417;52.482;13.432;2023-04-24T11:36:36;8.67;;;3.00;;
4806;SDS011;2417;52.482;13.432;2023-04-24T11:39:04;7.90;;;3.80;;
4806;SDS011;2417;52.482;13.432;2023-04-24T11:41:33;6.67;;;4.87;;
4806;SDS011;2417;52.482;13.432;2023-04-24T11:44:01;16.93;;;10.50;;
4806;SDS011;2417;52.482;13.432;2023-04-24T11:46:31;392.97;;;38.87;;
4806;SDS011;2417;52.482;13.432;2023-04-24T11:49:00;321.63;;;40.63;;
4806;SDS011;2417;52.482;13.432;2023-04-24T11:51:28;220.53;;;33.77;;
4806;SDS011;2417;52.482;13.432;2023-04-24T11:54:14;362.00;;;42.07;;
4806;SDS011;2417;52.482;13.432;2023-04-24T11:56:44;33.70;;;13.50;;
4806;SDS011;2417;52.482;13.432;2023-04-24T11:59:12;19.00;;;9.00;;
4806;SDS011;2417;52.482;13.432;2023-04-24T12:01:43;11.33;;;6.60;;
4806;SDS011;2417;52.482;13.432;2023-04-24T12:04:13;10.57;;;6.80;;
4806;SDS011;2417;52.482;13.432;2023-04-24T12:09:25;5.53;;;2.70;;
4806;SDS011;2417;52.482;13.432;2023-04-24T12:11:52;3.10;;;2.00;;
4806;SDS011;2417;52.482;13.432;2023-04-24T12:14:21;4.67;;;1.97;;
4806;SDS011;2417;52.482;13.432;2023-04-24T12:16:48;8.30;;;2.30;;
4806;SDS011;2417;52.482;13.432;2023-04-24T12:19:20;5.50;;;2.20;;
4806;SDS011;2417;52.482;13.432;2023-04-24T12:21:58;3.50;;;2.17;;
4806;SDS011;2417;52.482;13.432;2023-04-24T12:24:27;11.80;;;2.13;;
4806;SDS011;2417;52.482;13.432;2023-04-24T12:26:54;3.13;;;1.40;;
4806;SDS011;2417;52.482;13.432;2023-04-24T12:29:23;4.27;;;2.20;;
4806;SDS011;2417;52.482;13.432;2023-04-24T12:31:51;5.03;;;1.67;;
4806;SDS011;2417;52.482;13.432;2023-04-24T12:34:20;5.50;;;1.57;;
4806;SDS011;2417;52.482;13.432;2023-04-24T12:36:48;6.17;;;1.47;;
4806;SDS011;2417;52.482;13.432;2023-04-24T12:39:16;3.53;;;1.40;;
4806;SDS011;2417;52.482;13.432;2023-04-24T12:41:50;3.50;;;1.70;;
4806;SDS011;2417;52.482;13.432;2023-04-24T12:44:19;8.43;;;1.37;;
4806;SDS011;2417;52.482;13.432;2023-04-24T12:46:47;7.60;;;1.43;;
4806;SDS011;2417;52.482;13.432;2023-04-24T12:49:15;6.00;;;1.50;;
4806;SDS011;2417;52.482;13.432;2023-04-24T12:51:44;2.47;;;1.00;;
4806;SDS011;2417;52.482;13.432;2023-04-24T12:54:12;6.70;;;1.57;;
4806;SDS011;2417;52.482;13.432;2023-04-24T12:56:40;2.10;;;1.20;;
4806;SDS011;2417;52.482;13.432;2023-04-24T12:59:08;4.10;;;1.17;;
4806;SDS011;2417;52.482;13.432;2023-04-24T13:01:36;3.83;;;1.50;;
4806;SDS011;2417;52.482;13.432;2023-04-24T13:04:04;5.30;;;1.50;;
4806;SDS011;2417;52.482;13.432;2023-04-24T13:06:32;4.60;;;1.40;;
4806;SDS011;2417;52.482;13.432;2023-04-24T13:09:01;4.50;;;1.23;;
4806;SDS011;2417;52.482;13.432;2023-04-24T13:11:29;9.27;;;1.27;;
4806;SDS011;2417;52.482;13.432;2023-04-24T13:13:58;3.20;;;1.00;;
4806;SDS011;2417;52.482;13.432;2023-04-24T13:16:26;4.47;;;1.00;;
4806;SDS011;2417;52.482;13.432;2023-04-24T13:18:54;2.27;;;1.10;;
4806;SDS011;2417;52.482;13.432;2023-04-24T13:21:22;6.10;;;1.00;;
4806;SDS011;2417;52.482;13.432;2023-04-24T13:23:50;3.07;;;1.50;;
4806;SDS011;2417;52.482;13.432;2023-04-24T13:26:20;5.20;;;2.27;;
4806;SDS011;2417;52.482;13.432;2023-04-24T13:28:48;3.57;;;1.13;;
4806;SDS011;2417;52.482;13.432;2023-04-24T13:31:16;4.20;;;1.33;;
4806;SDS011;2417;52.482;13.432;2023-04-24T13:33:44;2.80;;;1.20;;
4806;SDS011;2417;52.482;13.432;2023-04-24T13:36:12;2.60;;;1.20;;
4806;SDS011;2417;52.482;13.432;2023-04-24T13:38:40;2.63;;;1.07;;
4806;SDS011;2417;52.482;13.432;2023-04-24T13:41:08;1.87;;;0.87;;
4806;SDS011;2417;52.482;13.432;2023-04-24T13:43:37;2.90;;;1.30;;
4806;SDS011;2417;52.482;13.432;2023-04-24T13:46:05;3.70;;;1.00;;
4806;SDS011;2417;52.482;13.432;2023-04-24T13:48:33;2.77;;;1.40;;
4806;SDS011;2417;52.482;13.432;2023-04-24T13:51:01;3.77;;;1.20;;
4806;SDS011;2417;52.482;13.432;2023-04-24T13:53:29;2.80;;;1.40;;
4806;SDS011;2417;52.482;13.432;2023-04-24T13:55:57;6.03;;;1.60;;
4806;SDS011;2417;52.482;13.432;2023-04-24T13:58:25;2.60;;;1.10;;
4806;SDS011;2417;52.482;13.432;2023-04-24T14:00:54;3.10;;;1.50;;
4806;SDS011;2417;52.482;13.432;2023-04-24T14:03:22;3.97;;;1.10;;
4806;SDS011;2417;52.482;13.432;2023-04-24T14:05:50;3.87;;;1.43;;
4806;SDS011;2417;52.482;13.432;2023-04-24T14:08:18;4.40;;;2.00;;
4806;SDS011;2417;52.482;13.432;2023-04-24T14:10:46;2.77;;;1.50;;
4806;SDS011;2417;52.482;13.432;2023-04-24T14:13:16;7.60;;;2.10;;
4806;SDS011;2417;52.482;13.432;2023-04-24T14:15:44;3.23;;;1.90;;
4806;SDS011;2417;52.482;13.432;2023-04-24T14:18:13;4.70;;;1.90;;
4806;SDS011;2417;52.482;13.432;2023-04-24T14:20:41;3.80;;;1.80;;
4806;SDS011;2417;52.482;13.432;2023-04-24T14:23:09;3.20;;;1.30;;
4806;SDS011;2417;52.482;13.432;2023-04-24T14:25:37;3.70;;;1.63;;
4806;SDS011;2417;52.482;13.432;2023-04-24T14:28:05;3.10;;;1.60;;
4806;SDS011;2417;52.482;13.432;2023-04-24T14:30:33;5.10;;;2.00;;
4806;SDS011;2417;52.482;13.432;2023-04-24T14:33:04;6.90;;;1.50;;
4806;SDS011;2417;52.482;13.432;2023-04-24T14:35:33;3.43;;;1.47;;
4806;SDS011;2417;52.482;13.432;2023-04-24T14:38:01;5.60;;;1.70;;
4806;SDS011;2417;52.482;13.432;2023-04-24T14:40:29;4.07;;;1.73;;
4806;SDS011;2417;52.482;13.432;2023-04-24T14:43:18;8.83;;;2.60;;
4806;SDS011;2417;52.482;13.432;2023-04-24T14:45:46;6.20;;;2.47;;
4806;SDS011;2417;52.482;13.432;2023-04-24T14:48:14;3.63;;;1.60;;
4806;SDS011;2417;52.482;13.432;2023-04-24T14:50:44;2.83;;;1.40;;
4806;SDS011;2417;52.482;13.432;2023-04-24T14:53:15;3.10;;;1.50;;
4806;SDS011;2417;52.482;13.432;2023-04-24T14:55:42;2.80;;;1.13;;
4806;SDS011;2417;52.482;13.432;2023-04-24T14:58:10;3.13;;;1.70;;
4806;SDS011;2417;52.482;13.432;2023-04-24T15:00:38;5.90;;;1.47;;
4806;SDS011;2417;52.482;13.432;2023-04-24T15:03:07;3.27;;;1.40;;
4806;SDS011;2417;52.482;13.432;2023-04-24T15:05:35;3.17;;;1.47;;
4806;SDS011;2417;52.482;13.432;2023-04-24T15:08:05;4.43;;;1.60;;
4806;SDS011;2417;52.482;13.432;2023-04-24T15:10:33;3.10;;;1.47;;
4806;SDS011;2417;52.482;13.432;2023-04-24T15:13:01;5.40;;;1.87;;